sensor_id;sensor_type;location;lat;lon;timestamp;temperature;humidity
23550;DHT22;11953;49.010;8.608;2023-04-24T00:01:14;13.30;99.90
23550;DHT22;11953;49.010;8.608;2023-04-24T00:04:02;13.30;99.90
23550;DHT22;11953;49.010;8.608;2023-04-24T00:06:49;13.20;99.90
23550;DHT22;11953;49.010;8.608;2023-04-24T00:09:39;12.90;99.90
23550;DHT22;11953;49.010;8.608;2023-04-24T00:12:26;12.90;99.90
23550;DHT22;11953;49.010;8.608;2023-04-24T00:15:12;12.90;99.90
23550;DHT22;11953;49.010;8.608;2023-04-24T00:17:59;12.90;99.90
23550;DHT22;11953;49.010;8.608;2023-04-24T00:20:48;12.80;99.90
23550;DHT22;11953;49.010;8.608;2023-04-24T00:23:34;12.80;99.90
23550;DHT22;11953;49.010;8.608;2023-04-24T00:26:20;12.90;99.90
23550;DHT22;11953;49.010;8.608;2023-04-24T00:29:08;12.90;99.90
23550;DHT22;11953;49.010;8.608;2023-04-24T00:31:55;12.90;99.90
23550;DHT22;11953;49.010;8.608;2023-04-24T00:34:42;12.80;99.90
23550;DHT22;11953;49.010;8.608;2023-04-24T00:37:30;12.90;99.90
23550;DHT22;11953;49.010;8.608;2023-04-24T00:40:17;13.00;99.90
23550;DHT22;11953;49.010;8.608;2023-04-24T00:43:04;13.00;99.90
23550;DHT22;11953;49.010;8.608;2023-04-24T00:45:53;12.90;99.90
23550;DHT22;11953;49.010;8.608;2023-04-24T00:48:40;12.90;99.90
23550;DHT22;11953;49.010;8.608;2023-04-24T00:51:26;12.80;99.90
23550;DHT22;11953;49.010;8.608;2023-04-24T00:54:15;12.80;99.90
23550;DHT22;11953;49.010;8.608;2023-04-24T00:57:02;12.90;99.90
23550;DHT22;11953;49.010;8.608;2023-04-24T00:59:50;12.90;99.90
23550;DHT22;11953;49.010;8.608;2023-04-24T01:02:38;13.00;99.90
23550;DHT22;11953;49.010;8.608;2023-04-24T01:05:29;13.00;99.90
23550;DHT22;11953;49.010;8.608;2023-04-24T01:08:16;13.00;99.90
23550;DHT22;11953;49.010;8.608;2023-04-24T01:11:04;13.00;99.90
23550;DHT22;11953;49.010;8.608;2023-04-24T01:13:51;13.10;99.90
23550;DHT22;11953;49.010;8.608;2023-04-24T01:16:38;13.10;99.90
23550;DHT22;11953;49.010;8.608;2023-04-24T01:19:27;13.00;99.90
23550;DHT22;11953;49.010;8.608;2023-04-24T01:22:16;13.20;99.90
23550;DHT22;11953;49.010;8.608;2023-04-24T01:25:03;13.20;99.90
23550;DHT22;11953;49.010;8.608;2023-04-24T01:27:51;13.20;99.90
23550;DHT22;11953;49.010;8.608;2023-04-24T01:30:38;13.20;99.90
23550;DHT22;11953;49.010;8.608;2023-04-24T01:33:25;13.20;99.90
23550;DHT22;11953;49.010;8.608;2023-04-24T01:36:12;13.20;99.90
23550;DHT22;11953;49.010;8.608;2023-04-24T01:39:01;13.20;99.90
23550;DHT22;11953;49.010;8.608;2023-04-24T01:41:47;13.20;99.90
23550;DHT22;11953;49.010;8.608;2023-04-24T01:44:37;13.20;99.90
23550;DHT22;11953;49.010;8.608;2023-04-24T01:47:24;13.20;99.90
23550;DHT22;11953;49.010;8.608;2023-04-24T01:50:11;13.10;99.90
23550;DHT22;11953;49.010;8.608;2023-04-24T01:52:57;13.10;99.90
23550;DHT22;11953;49.010;8.608;2023-04-24T01:55:45;13.20;99.90
23550;DHT22;11953;49.010;8.608;2023-04-24T01:58:32;13.30;99.90
23550;DHT22;11953;49.010;8.608;2023-04-24T02:01:20;13.40;99.90
23550;DHT22;11953;49.010;8.608;2023-04-24T02:04:07;13.40;99.90
23550;DHT22;11953;49.010;8.608;2023-04-24T02:06:54;13.40;99.90
23550;DHT22;11953;49.010;8.608;2023-04-24T02:09:42;13.30;99.90
23550;DHT22;11953;49.010;8.608;2023-04-24T02:12:31;13.30;99.90
23550;DHT22;11953;49.010;8.608;2023-04-24T02:15:18;13.30;99.90
23550;DHT22;11953;49.010;8.608;2023-04-24T02:18:05;13.30;99.90
23550;DHT22;11953;49.010;8.608;2023-04-24T02:20:52;13.30;99.90
23550;DHT22;11953;49.010;8.608;2023-04-24T02:23:39;13.40;99.90
23550;DHT22;11953;49.010;8.608;2023-04-24T02:26:25;13.40;99.90
23550;DHT22;11953;49.010;8.608;2023-04-24T02:29:14;13.30;99.90
23550;DHT22;11953;49.010;8.608;2023-04-24T02:32:01;13.30;99.90
23550;DHT22;11953;49.010;8.608;2023-04-24T02:34:48;13.20;99.90
23550;DHT22;11953;49.010;8.608;2023-04-24T02:37:34;13.30;99.90
23550;DHT22;11953;49.010;8.608;2023-04-24T02:40:21;13.30;99.90
23550;DHT22;11953;49.010;8.608;2023-04-24T02:43:07;13.20;99.90
23550;DHT22;11953;49.010;8.608;2023-04-24T02:45:56;13.20;99.90
23550;DHT22;11953;49.010;8.608;2023-04-24T02:48:43;13.10;99.90
23550;DHT22;11953;49.010;8.608;2023-04-24T02:51:30;13.20;99.90
23550;DHT22;11953;49.010;8.608;2023-04-24T02:54:17;13.20;99.90
23550;DHT22;11953;49.010;8.608;2023-04-24T02:57:03;13.10;99.90
23550;DHT22;11953;49.010;8.608;2023-04-24T02:59:51;13.00;99.90
23550;DHT22;11953;49.010;8.608;2023-04-24T03:02:39;13.00;99.90
23550;DHT22;11953;49.010;8.608;2023-04-24T03:05:26;13.00;99.90
23550;DHT22;11953;49.010;8.608;2023-04-24T03:08:12;13.00;99.90
23550;DHT22;11953;49.010;8.608;2023-04-24T03:11:02;13.00;99.90
23550;DHT22;11953;49.010;8.608;2023-04-24T03:13:49;13.00;99.90
23550;DHT22;11953;49.010;8.608;2023-04-24T03:16:35;12.90;99.90
23550;DHT22;11953;49.010;8.608;2023-04-24T03:19:23;12.80;99.90
23550;DHT22;11953;49.010;8.608;2023-04-24T03:22:17;12.70;99.90
23550;DHT22;11953;49.010;8.608;2023-04-24T03:25:05;12.70;99.90
23550;DHT22;11953;49.010;8.608;2023-04-24T03:27:53;12.70;99.90
23550;DHT22;11953;49.010;8.608;2023-04-24T03:30:52;12.50;99.90
23550;DHT22;11953;49.010;8.608;2023-04-24T03:33:41;12.30;99.90
23550;DHT22;11953;49.010;8.608;2023-04-24T03:36:29;12.10;99.90
23550;DHT22;11953;49.010;8.608;2023-04-24T03:39:17;11.90;99.90
23550;DHT22;11953;49.010;8.608;2023-04-24T03:42:09;11.80;99.90
23550;DHT22;11953;49.010;8.608;2023-04-24T03:45:08;11.70;99.90
23550;DHT22;11953;49.010;8.608;2023-04-24T03:47:58;11.70;99.90
23550;DHT22;11953;49.010;8.608;2023-04-24T03:50:45;11.60;99.90
23550;DHT22;11953;49.010;8.608;2023-04-24T03:53:33;11.60;99.90
23550;DHT22;11953;49.010;8.608;2023-04-24T03:56:20;11.60;99.90
23550;DHT22;11953;49.010;8.608;2023-04-24T03:59:07;11.60;99.90
23550;DHT22;11953;49.010;8.608;2023-04-24T04:01:55;11.70;99.90
23550;DHT22;11953;49.010;8.608;2023-04-24T04:04:42;11.80;99.90
23550;DHT22;11953;49.010;8.608;2023-04-24T04:07:29;11.80;99.90
23550;DHT22;11953;49.010;8.608;2023-04-24T04:10:17;11.80;99.90
23550;DHT22;11953;49.010;8.608;2023-04-24T04:13:04;11.90;99.90
23550;DHT22;11953;49.010;8.608;2023-04-24T04:15:53;11.90;99.90
23550;DHT22;11953;49.010;8.608;2023-04-24T04:18:40;11.80;99.90
23550;DHT22;11953;49.010;8.608;2023-04-24T04:21:28;11.80;99.90
23550;DHT22;11953;49.010;8.608;2023-04-24T04:24:27;11.90;99.90
23550;DHT22;11953;49.010;8.608;2023-04-24T04:27:17;11.90;99.90
23550;DHT22;11953;49.010;8.608;2023-04-24T04:30:15;11.80;99.90
23550;DHT22;11953;49.010;8.608;2023-04-24T04:33:09;11.80;99.90
23550;DHT22;11953;49.010;8.608;2023-04-24T04:35:56;11.80;99.90
23550;DHT22;11953;49.010;8.608;2023-04-24T04:38:45;11.80;99.90
23550;DHT22;11953;49.010;8.608;2023-04-24T04:41:50;11.80;99.90
23550;DHT22;11953;49.010;8.608;2023-04-24T04:44:42;11.80;99.90
23550;DHT22;11953;49.010;8.608;2023-04-24T04:47:35;11.80;99.90
23550;DHT22;11953;49.010;8.608;2023-04-24T04:50:22;11.70;99.90
23550;DHT22;11953;49.010;8.608;2023-04-24T04:53:14;11.70;99.90
23550;DHT22;11953;49.010;8.608;2023-04-24T04:56:00;11.60;99.90
23550;DHT22;11953;49.010;8.608;2023-04-24T04:59:05;11.50;99.90
23550;DHT22;11953;49.010;8.608;2023-04-24T05:01:55;11.50;99.90
23550;DHT22;11953;49.010;8.608;2023-04-24T05:04:43;11.50;99.90
23550;DHT22;11953;49.010;8.608;2023-04-24T05:07:31;11.50;99.90
23550;DHT22;11953;49.010;8.608;2023-04-24T05:10:18;11.50;99.90
23550;DHT22;11953;49.010;8.608;2023-04-24T05:13:05;11.50;99.90
23550;DHT22;11953;49.010;8.608;2023-04-24T05:15:52;11.50;99.90
23550;DHT22;11953;49.010;8.608;2023-04-24T05:18:40;11.80;99.90
23550;DHT22;11953;49.010;8.608;2023-04-24T05:21:29;12.20;99.90
23550;DHT22;11953;49.010;8.608;2023-04-24T05:24:18;12.80;99.90
23550;DHT22;11953;49.010;8.608;2023-04-24T05:27:17;13.10;99.90
23550;DHT22;11953;49.010;8.608;2023-04-24T05:30:05;13.60;99.90
23550;DHT22;11953;49.010;8.608;2023-04-24T05:32:52;14.00;99.90
23550;DHT22;11953;49.010;8.608;2023-04-24T05:35:40;13.70;99.90
23550;DHT22;11953;49.010;8.608;2023-04-24T05:38:31;14.00;99.90
23550;DHT22;11953;49.010;8.608;2023-04-24T05:41:18;14.30;99.90
23550;DHT22;11953;49.010;8.608;2023-04-24T05:44:05;14.70;99.90
23550;DHT22;11953;49.010;8.608;2023-04-24T05:46:52;15.20;99.90
23550;DHT22;11953;49.010;8.608;2023-04-24T05:49:40;15.40;99.90
23550;DHT22;11953;49.010;8.608;2023-04-24T05:52:29;15.60;99.90
23550;DHT22;11953;49.010;8.608;2023-04-24T05:55:16;15.40;99.90
23550;DHT22;11953;49.010;8.608;2023-04-24T05:58:04;15.20;99.90
23550;DHT22;11953;49.010;8.608;2023-04-24T06:00:53;14.80;99.90
23550;DHT22;11953;49.010;8.608;2023-04-24T06:03:40;14.30;99.90
23550;DHT22;11953;49.010;8.608;2023-04-24T06:06:28;14.20;99.90
23550;DHT22;11953;49.010;8.608;2023-04-24T06:09:16;14.10;99.90
23550;DHT22;11953;49.010;8.608;2023-04-24T06:12:03;14.30;99.90
23550;DHT22;11953;49.010;8.608;2023-04-24T06:15:05;14.90;99.90
23550;DHT22;11953;49.010;8.608;2023-04-24T06:18:20;15.40;99.90
23550;DHT22;11953;49.010;8.608;2023-04-24T06:21:07;15.00;99.90
23550;DHT22;11953;49.010;8.608;2023-04-24T06:23:54;14.50;99.90
23550;DHT22;11953;49.010;8.608;2023-04-24T06:26:42;14.10;99.90
23550;DHT22;11953;49.010;8.608;2023-04-24T06:29:29;14.10;99.90
23550;DHT22;11953;49.010;8.608;2023-04-24T06:32:16;14.10;99.90
23550;DHT22;11953;49.010;8.608;2023-04-24T06:35:04;14.30;99.90
23550;DHT22;11953;49.010;8.608;2023-04-24T06:37:52;14.60;99.90
23550;DHT22;11953;49.010;8.608;2023-04-24T06:40:41;14.80;99.90
23550;DHT22;11953;49.010;8.608;2023-04-24T06:43:30;14.60;99.90
23550;DHT22;11953;49.010;8.608;2023-04-24T06:46:16;14.50;99.90
23550;DHT22;11953;49.010;8.608;2023-04-24T06:49:03;14.40;99.90
23550;DHT22;11953;49.010;8.608;2023-04-24T06:51:50;14.50;99.90
23550;DHT22;11953;49.010;8.608;2023-04-24T06:54:36;14.60;99.90
23550;DHT22;11953;49.010;8.608;2023-04-24T06:57:23;15.10;99.90
23550;DHT22;11953;49.010;8.608;2023-04-24T07:00:12;15.90;99.90
23550;DHT22;11953;49.010;8.608;2023-04-24T07:02:59;16.40;99.90
23550;DHT22;11953;49.010;8.608;2023-04-24T07:05:46;16.40;99.90
23550;DHT22;11953;49.010;8.608;2023-04-24T07:08:33;16.50;99.90
23550;DHT22;11953;49.010;8.608;2023-04-24T07:11:20;16.50;99.90
23550;DHT22;11953;49.010;8.608;2023-04-24T07:14:07;16.30;99.90
23550;DHT22;11953;49.010;8.608;2023-04-24T07:16:55;16.30;99.90
23550;DHT22;11953;49.010;8.608;2023-04-24T07:19:42;16.30;99.90
23550;DHT22;11953;49.010;8.608;2023-04-24T07:22:29;16.30;99.90
23550;DHT22;11953;49.010;8.608;2023-04-24T07:25:16;17.00;99.90
23550;DHT22;11953;49.010;8.608;2023-04-24T07:28:03;17.30;99.90
23550;DHT22;11953;49.010;8.608;2023-04-24T07:30:49;17.10;99.90
23550;DHT22;11953;49.010;8.608;2023-04-24T07:33:40;17.00;99.90
23550;DHT22;11953;49.010;8.608;2023-04-24T07:36:27;16.70;99.90
23550;DHT22;11953;49.010;8.608;2023-04-24T07:39:14;16.90;99.90
23550;DHT22;11953;49.010;8.608;2023-04-24T07:42:01;16.70;99.90
23550;DHT22;11953;49.010;8.608;2023-04-24T07:44:47;16.00;99.90
23550;DHT22;11953;49.010;8.608;2023-04-24T07:47:34;15.60;99.90
23550;DHT22;11953;49.010;8.608;2023-04-24T07:50:24;15.50;99.90
23550;DHT22;11953;49.010;8.608;2023-04-24T07:53:11;15.80;99.90
23550;DHT22;11953;49.010;8.608;2023-04-24T07:55:58;16.00;99.90
23550;DHT22;11953;49.010;8.608;2023-04-24T07:58:45;16.10;99.90
23550;DHT22;11953;49.010;8.608;2023-04-24T08:01:31;15.90;99.90
23550;DHT22;11953;49.010;8.608;2023-04-24T08:04:18;15.40;99.90
23550;DHT22;11953;49.010;8.608;2023-04-24T08:07:06;15.00;99.90
23550;DHT22;11953;49.010;8.608;2023-04-24T08:09:53;14.60;99.90
23550;DHT22;11953;49.010;8.608;2023-04-24T08:12:41;14.40;99.90
23550;DHT22;11953;49.010;8.608;2023-04-24T08:15:27;14.20;99.90
23550;DHT22;11953;49.010;8.608;2023-04-24T08:18:14;13.80;99.90
23550;DHT22;11953;49.010;8.608;2023-04-24T08:21:01;13.40;99.90
23550;DHT22;11953;49.010;8.608;2023-04-24T08:23:50;13.20;99.90
23550;DHT22;11953;49.010;8.608;2023-04-24T08:26:37;13.20;99.90
23550;DHT22;11953;49.010;8.608;2023-04-24T08:29:23;13.60;99.90
23550;DHT22;11953;49.010;8.608;2023-04-24T08:32:10;14.00;99.90
23550;DHT22;11953;49.010;8.608;2023-04-24T08:34:57;15.10;99.90
23550;DHT22;11953;49.010;8.608;2023-04-24T08:37:44;15.60;99.90
23550;DHT22;11953;49.010;8.608;2023-04-24T08:40:34;15.00;99.90
23550;DHT22;11953;49.010;8.608;2023-04-24T08:43:22;14.40;99.90
23550;DHT22;11953;49.010;8.608;2023-04-24T08:46:09;13.80;99.90
23550;DHT22;11953;49.010;8.608;2023-04-24T08:48:57;13.30;99.90
23550;DHT22;11953;49.010;8.608;2023-04-24T08:51:45;13.10;99.90
23550;DHT22;11953;49.010;8.608;2023-04-24T08:54:34;12.90;99.90
23550;DHT22;11953;49.010;8.608;2023-04-24T08:57:22;12.70;99.90
23550;DHT22;11953;49.010;8.608;2023-04-24T09:00:10;12.60;99.90
23550;DHT22;11953;49.010;8.608;2023-04-24T09:02:57;12.70;99.90
23550;DHT22;11953;49.010;8.608;2023-04-24T09:05:46;13.40;99.90
23550;DHT22;11953;49.010;8.608;2023-04-24T09:08:36;13.80;99.90
23550;DHT22;11953;49.010;8.608;2023-04-24T09:11:23;14.20;99.90
23550;DHT22;11953;49.010;8.608;2023-04-24T09:14:12;14.90;99.90
23550;DHT22;11953;49.010;8.608;2023-04-24T09:16:59;16.00;99.90
23550;DHT22;11953;49.010;8.608;2023-04-24T09:19:46;17.00;99.90
23550;DHT22;11953;49.010;8.608;2023-04-24T09:22:34;17.90;99.90
23550;DHT22;11953;49.010;8.608;2023-04-24T09:25:21;17.40;99.90
23550;DHT22;11953;49.010;8.608;2023-04-24T09:28:08;16.50;99.90
23550;DHT22;11953;49.010;8.608;2023-04-24T09:31:04;15.80;99.90
23550;DHT22;11953;49.010;8.608;2023-04-24T09:33:54;15.00;99.90
23550;DHT22;11953;49.010;8.608;2023-04-24T09:36:43;14.50;99.90
23550;DHT22;11953;49.010;8.608;2023-04-24T09:39:29;14.20;99.90
23550;DHT22;11953;49.010;8.608;2023-04-24T09:42:16;14.10;99.90
23550;DHT22;11953;49.010;8.608;2023-04-24T09:45:03;14.00;99.90
23550;DHT22;11953;49.010;8.608;2023-04-24T09:48:01;14.00;99.90
23550;DHT22;11953;49.010;8.608;2023-04-24T09:50:49;14.00;99.90
23550;DHT22;11953;49.010;8.608;2023-04-24T09:53:38;13.90;99.90
23550;DHT22;11953;49.010;8.608;2023-04-24T09:56:32;14.00;99.90
23550;DHT22;11953;49.010;8.608;2023-04-24T09:59:20;13.90;99.90
23550;DHT22;11953;49.010;8.608;2023-04-24T10:02:16;14.00;99.90
23550;DHT22;11953;49.010;8.608;2023-04-24T10:05:05;13.70;99.90
23550;DHT22;11953;49.010;8.608;2023-04-24T10:07:56;13.70;99.90
23550;DHT22;11953;49.010;8.608;2023-04-24T10:10:45;13.80;99.90
23550;DHT22;11953;49.010;8.608;2023-04-24T10:13:32;14.10;99.90
23550;DHT22;11953;49.010;8.608;2023-04-24T10:16:19;14.10;99.90
23550;DHT22;11953;49.010;8.608;2023-04-24T10:19:08;14.30;99.90
23550;DHT22;11953;49.010;8.608;2023-04-24T10:21:56;14.60;99.90
23550;DHT22;11953;49.010;8.608;2023-04-24T10:24:44;14.80;99.90
23550;DHT22;11953;49.010;8.608;2023-04-24T10:27:32;14.90;99.90
23550;DHT22;11953;49.010;8.608;2023-04-24T10:30:19;14.90;99.90
23550;DHT22;11953;49.010;8.608;2023-04-24T10:33:07;15.00;99.90
23550;DHT22;11953;49.010;8.608;2023-04-24T10:35:55;14.60;99.90
23550;DHT22;11953;49.010;8.608;2023-04-24T10:38:44;14.30;99.90
23550;DHT22;11953;49.010;8.608;2023-04-24T10:41:32;14.00;99.90
23550;DHT22;11953;49.010;8.608;2023-04-24T10:44:22;13.60;99.90
23550;DHT22;11953;49.010;8.608;2023-04-24T10:47:13;13.60;99.90
23550;DHT22;11953;49.010;8.608;2023-04-24T10:50:00;13.40;99.90
23550;DHT22;11953;49.010;8.608;2023-04-24T10:52:49;13.30;99.90
23550;DHT22;11953;49.010;8.608;2023-04-24T10:55:45;13.10;99.90
23550;DHT22;11953;49.010;8.608;2023-04-24T10:58:38;13.00;99.90
23550;DHT22;11953;49.010;8.608;2023-04-24T11:01:27;13.00;99.90
23550;DHT22;11953;49.010;8.608;2023-04-24T11:04:29;13.20;99.90
23550;DHT22;11953;49.010;8.608;2023-04-24T11:07:16;13.40;99.90
23550;DHT22;11953;49.010;8.608;2023-04-24T11:10:03;13.40;99.90
23550;DHT22;11953;49.010;8.608;2023-04-24T11:12:52;13.60;99.90
23550;DHT22;11953;49.010;8.608;2023-04-24T11:15:41;13.50;99.90
23550;DHT22;11953;49.010;8.608;2023-04-24T11:18:37;13.40;99.90
23550;DHT22;11953;49.010;8.608;2023-04-24T11:21:24;13.40;99.90
23550;DHT22;11953;49.010;8.608;2023-04-24T11:24:30;13.10;99.90
23550;DHT22;11953;49.010;8.608;2023-04-24T11:27:19;13.20;99.90
23550;DHT22;11953;49.010;8.608;2023-04-24T11:30:09;13.10;99.90
23550;DHT22;11953;49.010;8.608;2023-04-24T11:33:02;13.00;99.90
23550;DHT22;11953;49.010;8.608;2023-04-24T11:35:51;13.00;99.90
23550;DHT22;11953;49.010;8.608;2023-04-24T11:38:39;13.10;99.90
23550;DHT22;11953;49.010;8.608;2023-04-24T11:41:27;13.30;99.90
23550;DHT22;11953;49.010;8.608;2023-04-24T11:44:15;13.50;99.90
23550;DHT22;11953;49.010;8.608;2023-04-24T11:47:08;13.70;99.90
23550;DHT22;11953;49.010;8.608;2023-04-24T11:49:55;13.80;99.90
23550;DHT22;11953;49.010;8.608;2023-04-24T11:52:43;13.80;99.90
23550;DHT22;11953;49.010;8.608;2023-04-24T11:55:30;13.80;99.90
23550;DHT22;11953;49.010;8.608;2023-04-24T11:58:20;13.80;99.90
23550;DHT22;11953;49.010;8.608;2023-04-24T12:01:08;13.30;99.90
23550;DHT22;11953;49.010;8.608;2023-04-24T12:04:00;12.90;99.90
23550;DHT22;11953;49.010;8.608;2023-04-24T12:06:59;12.70;99.90
23550;DHT22;11953;49.010;8.608;2023-04-24T12:09:49;12.50;99.90
23550;DHT22;11953;49.010;8.608;2023-04-24T12:12:41;12.30;99.90
23550;DHT22;11953;49.010;8.608;2023-04-24T12:15:28;12.50;99.90
23550;DHT22;11953;49.010;8.608;2023-04-24T12:18:15;12.70;99.90
23550;DHT22;11953;49.010;8.608;2023-04-24T12:21:18;13.20;99.90
23550;DHT22;11953;49.010;8.608;2023-04-24T12:24:07;13.90;99.90
23550;DHT22;11953;49.010;8.608;2023-04-24T12:26:54;14.40;99.90
23550;DHT22;11953;49.010;8.608;2023-04-24T12:29:51;14.60;99.90
23550;DHT22;11953;49.010;8.608;2023-04-24T12:32:41;14.50;99.90
23550;DHT22;11953;49.010;8.608;2023-04-24T12:35:29;14.30;99.90
23550;DHT22;11953;49.010;8.608;2023-04-24T12:38:22;14.00;99.90
23550;DHT22;11953;49.010;8.608;2023-04-24T12:41:10;13.80;99.90
23550;DHT22;11953;49.010;8.608;2023-04-24T12:43:58;13.70;99.90
23550;DHT22;11953;49.010;8.608;2023-04-24T12:46:44;13.70;99.90
23550;DHT22;11953;49.010;8.608;2023-04-24T12:49:32;13.50;99.90
23550;DHT22;11953;49.010;8.608;2023-04-24T12:52:18;13.50;99.90
23550;DHT22;11953;49.010;8.608;2023-04-24T12:55:08;13.80;99.90
23550;DHT22;11953;49.010;8.608;2023-04-24T12:57:55;13.80;99.90
23550;DHT22;11953;49.010;8.608;2023-04-24T13:00:41;13.80;99.90
23550;DHT22;11953;49.010;8.608;2023-04-24T13:03:31;13.70;99.90
23550;DHT22;11953;49.010;8.608;2023-04-24T13:06:18;13.90;99.90
23550;DHT22;11953;49.010;8.608;2023-04-24T13:09:04;14.30;99.90
23550;DHT22;11953;49.010;8.608;2023-04-24T13:11:52;14.30;99.90
23550;DHT22;11953;49.010;8.608;2023-04-24T13:14:39;14.40;99.90
23550;DHT22;11953;49.010;8.608;2023-04-24T13:17:26;14.50;99.90
23550;DHT22;11953;49.010;8.608;2023-04-24T13:20:13;14.40;99.90
23550;DHT22;11953;49.010;8.608;2023-04-24T13:23:00;14.30;99.90
23550;DHT22;11953;49.010;8.608;2023-04-24T13:25:47;14.10;99.90
23550;DHT22;11953;49.010;8.608;2023-04-24T13:28:34;14.00;99.90
23550;DHT22;11953;49.010;8.608;2023-04-24T13:31:21;13.90;99.90
23550;DHT22;11953;49.010;8.608;2023-04-24T13:34:08;13.70;99.90
23550;DHT22;11953;49.010;8.608;2023-04-24T13:36:56;13.60;99.90
23550;DHT22;11953;49.010;8.608;2023-04-24T13:39:43;13.60;99.90
23550;DHT22;11953;49.010;8.608;2023-04-24T13:42:30;13.70;99.90
23550;DHT22;11953;49.010;8.608;2023-04-24T13:45:18;14.00;99.90
23550;DHT22;11953;49.010;8.608;2023-04-24T13:48:10;14.20;99.90
23550;DHT22;11953;49.010;8.608;2023-04-24T13:50:57;14.40;99.90
23550;DHT22;11953;49.010;8.608;2023-04-24T13:53:43;14.30;99.90
23550;DHT22;11953;49.010;8.608;2023-04-24T13:56:30;14.40;99.90
23550;DHT22;11953;49.010;8.608;2023-04-24T13:59:16;14.50;99.90
23550;DHT22;11953;49.010;8.608;2023-04-24T14:02:05;14.50;99.90
23550;DHT22;11953;49.010;8.608;2023-04-24T14:04:52;14.50;99.90
23550;DHT22;11953;49.010;8.608;2023-04-24T14:07:39;14.60;99.90
23550;DHT22;11953;49.010;8.608;2023-04-24T14:10:25;14.60;99.90
23550;DHT22;11953;49.010;8.608;2023-04-24T14:13:13;14.50;99.90
23550;DHT22;11953;49.010;8.608;2023-04-24T14:15:59;14.50;99.90
23550;DHT22;11953;49.010;8.608;2023-04-24T14:18:48;14.30;99.90
23550;DHT22;11953;49.010;8.608;2023-04-24T14:21:35;14.30;99.90
23550;DHT22;11953;49.010;8.608;2023-04-24T14:24:21;14.30;99.90
23550;DHT22;11953;49.010;8.608;2023-04-24T14:27:08;14.30;99.90
23550;DHT22;11953;49.010;8.608;2023-04-24T14:29:54;14.30;99.90
23550;DHT22;11953;49.010;8.608;2023-04-24T14:32:40;14.40;99.90
23550;DHT22;11953;49.010;8.608;2023-04-24T14:35:29;14.20;99.90
23550;DHT22;11953;49.010;8.608;2023-04-24T14:38:17;14.10;99.90
23550;DHT22;11953;49.010;8.608;2023-04-24T14:41:04;13.60;99.90
23550;DHT22;11953;49.010;8.608;2023-04-24T14:43:58;13.30;99.90
23550;DHT22;11953;49.010;8.608;2023-04-24T14:46:45;13.30;99.90
23550;DHT22;11953;49.010;8.608;2023-04-24T14:49:32;13.40;99.90
23550;DHT22;11953;49.010;8.608;2023-04-24T14:52:20;13.80;99.90
23550;DHT22;11953;49.010;8.608;2023-04-24T14:55:07;13.90;99.90
23550;DHT22;11953;49.010;8.608;2023-04-24T14:57:54;13.90;99.90
23550;DHT22;11953;49.010;8.608;2023-04-24T15:00:41;13.80;99.90
23550;DHT22;11953;49.010;8.608;2023-04-24T15:03:27;13.70;99.90
23550;DHT22;11953;49.010;8.608;2023-04-24T15:06:15;13.70;99.90
23550;DHT22;11953;49.010;8.608;2023-04-24T15:09:03;13.70;99.90
23550;DHT22;11953;49.010;8.608;2023-04-24T15:11:50;13.70;99.90
23550;DHT22;11953;49.010;8.608;2023-04-24T15:14:38;13.70;99.90
23550;DHT22;11953;49.010;8.608;2023-04-24T15:17:24;13.80;99.90
23550;DHT22;11953;49.010;8.608;2023-04-24T15:20:12;13.70;99.90
23550;DHT22;11953;49.010;8.608;2023-04-24T15:22:58;13.80;99.90
23550;DHT22;11953;49.010;8.608;2023-04-24T15:25:47;13.80;99.90
23550;DHT22;11953;49.010;8.608;2023-04-24T15:28:34;13.70;99.90
23550;DHT22;11953;49.010;8.608;2023-04-24T15:31:21;13.70;99.90
23550;DHT22;11953;49.010;8.608;2023-04-24T15:34:08;13.70;99.90
23550;DHT22;11953;49.010;8.608;2023-04-24T15:36:55;13.70;99.90
23550;DHT22;11953;49.010;8.608;2023-04-24T15:39:44;13.60;99.90
23550;DHT22;11953;49.010;8.608;2023-04-24T15:42:33;13.50;99.90
23550;DHT22;11953;49.010;8.608;2023-04-24T15:45:20;13.50;99.90
23550;DHT22;11953;49.010;8.608;2023-04-24T15:48:07;13.40;99.90
23550;DHT22;11953;49.010;8.608;2023-04-24T15:50:53;13.50;99.90
23550;DHT22;11953;49.010;8.608;2023-04-24T15:53:40;13.50;99.90
23550;DHT22;11953;49.010;8.608;2023-04-24T15:56:27;13.40;99.90
23550;DHT22;11953;49.010;8.608;2023-04-24T15:59:17;13.40;99.90
23550;DHT22;11953;49.010;8.608;2023-04-24T16:02:04;13.50;99.90
23550;DHT22;11953;49.010;8.608;2023-04-24T16:04:51;13.40;99.90
23550;DHT22;11953;49.010;8.608;2023-04-24T16:07:38;13.40;99.90
23550;DHT22;11953;49.010;8.608;2023-04-24T16:10:25;13.30;99.90
23550;DHT22;11953;49.010;8.608;2023-04-24T16:13:12;13.30;99.90
23550;DHT22;11953;49.010;8.608;2023-04-24T16:15:59;13.30;99.90
23550;DHT22;11953;49.010;8.608;2023-04-24T16:18:46;13.30;99.90
23550;DHT22;11953;49.010;8.608;2023-04-24T16:21:34;13.40;99.90
23550;DHT22;11953;49.010;8.608;2023-04-24T16:24:22;13.40;99.90
23550;DHT22;11953;49.010;8.608;2023-04-24T16:27:09;13.50;99.90
23550;DHT22;11953;49.010;8.608;2023-04-24T16:29:55;13.70;99.90
23550;DHT22;11953;49.010;8.608;2023-04-24T16:32:44;13.80;99.90
23550;DHT22;11953;49.010;8.608;2023-04-24T16:35:31;13.80;99.90
23550;DHT22;11953;49.010;8.608;2023-04-24T16:38:17;13.70;99.90
23550;DHT22;11953;49.010;8.608;2023-04-24T16:41:04;13.70;99.90
23550;DHT22;11953;49.010;8.608;2023-04-24T16:43:51;13.60;99.90
23550;DHT22;11953;49.010;8.608;2023-04-24T16:46:38;13.60;99.90
23550;DHT22;11953;49.010;8.608;2023-04-24T16:49:29;13.50;99.90
23550;DHT22;11953;49.010;8.608;2023-04-24T16:52:17;13.40;99.90
23550;DHT22;11953;49.010;8.608;2023-04-24T16:55:04;13.40;99.90
23550;DHT22;11953;49.010;8.608;2023-04-24T16:57:51;13.40;99.90
23550;DHT22;11953;49.010;8.608;2023-04-24T17:00:38;13.50;99.90
23550;DHT22;11953;49.010;8.608;2023-04-24T17:03:26;13.50;99.90
23550;DHT22;11953;49.010;8.608;2023-04-24T17:06:17;13.50;99.90
23550;DHT22;11953;49.010;8.608;2023-04-24T17:09:04;13.50;99.90
23550;DHT22;11953;49.010;8.608;2023-04-24T17:11:50;13.40;99.90
23550;DHT22;11953;49.010;8.608;2023-04-24T17:14:37;13.30;99.90
23550;DHT22;11953;49.010;8.608;2023-04-24T17:17:24;13.20;99.90
23550;DHT22;11953;49.010;8.608;2023-04-24T17:20:11;13.10;99.90
23550;DHT22;11953;49.010;8.608;2023-04-24T17:23:09;13.00;99.90
23550;DHT22;11953;49.010;8.608;2023-04-24T17:25:57;13.10;99.90
23550;DHT22;11953;49.010;8.608;2023-04-24T17:28:44;13.10;99.90
23550;DHT22;11953;49.010;8.608;2023-04-24T17:31:31;13.00;99.90
23550;DHT22;11953;49.010;8.608;2023-04-24T17:34:18;12.90;99.90
23550;DHT22;11953;49.010;8.608;2023-04-24T17:37:05;12.80;99.90
23550;DHT22;11953;49.010;8.608;2023-04-24T17:39:52;12.70;99.90
23550;DHT22;11953;49.010;8.608;2023-04-24T17:42:39;12.70;99.90